sensor_id;sensor_type;location;lat;lon;timestamp;P1;durP1;ratioP1;P2;durP2;ratioP2
67715;SDS011;54508;43.238;25.306;2023-02-28T00:00:07;1.48;;;1.17;;
67715;SDS011;54508;43.238;25.306;2023-02-28T00:02:42;1.63;;;1.30;;
67715;SDS011;54508;43.238;25.306;2023-02-28T00:05:09;1.63;;;1.35;;
67715;SDS011;54508;43.238;25.306;2023-02-28T00:07:36;1.98;;;0.93;;
67715;SDS011;54508;43.238;25.306;2023-02-28T00:10:02;1.95;;;1.23;;
67715;SDS011;54508;43.238;25.306;2023-02-28T00:12:29;1.40;;;1.10;;
67715;SDS011;54508;43.238;25.306;2023-02-28T00:14:55;1.83;;;1.20;;
67715;SDS011;54508;43.238;25.306;2023-02-28T00:17:20;2.33;;;1.37;;
67715;SDS011;54508;43.238;25.306;2023-02-28T00:19:50;1.10;;;0.98;;
67715;SDS011;54508;43.238;25.306;2023-02-28T00:22:51;1.35;;;1.10;;
67715;SDS011;54508;43.238;25.306;2023-02-28T00:25:22;1.33;;;1.10;;
67715;SDS011;54508;43.238;25.306;2023-02-28T00:27:49;2.35;;;1.33;;
67715;SDS011;54508;43.238;25.306;2023-02-28T00:30:16;1.20;;;1.10;;
67715;SDS011;54508;43.238;25.306;2023-02-28T00:32:57;1.38;;;1.08;;
67715;SDS011;54508;43.238;25.306;2023-02-28T00:35:24;2.05;;;1.30;;
67715;SDS011;54508;43.238;25.306;2023-02-28T00:37:49;1.27;;;1.17;;
67715;SDS011;54508;43.238;25.306;2023-02-28T00:40:15;1.60;;;1.30;;
67715;SDS011;54508;43.238;25.306;2023-02-28T00:42:41;1.35;;;1.10;;
67715;SDS011;54508;43.238;25.306;2023-02-28T00:45:06;1.33;;;1.13;;
67715;SDS011;54508;43.238;25.306;2023-02-28T00:47:33;1.85;;;1.20;;
67715;SDS011;54508;43.238;25.306;2023-02-28T00:50:04;1.42;;;1.17;;
67715;SDS011;54508;43.238;25.306;2023-02-28T00:52:37;0.90;;;0.80;;
67715;SDS011;54508;43.238;25.306;2023-02-28T00:55:05;1.58;;;1.17;;
67715;SDS011;54508;43.238;25.306;2023-02-28T00:57:30;2.17;;;1.02;;
67715;SDS011;54508;43.238;25.306;2023-02-28T00:59:56;1.50;;;1.03;;
67715;SDS011;54508;43.238;25.306;2023-02-28T01:02:24;1.40;;;1.08;;
67715;SDS011;54508;43.238;25.306;2023-02-28T01:04:49;2.23;;;1.30;;
67715;SDS011;54508;43.238;25.306;2023-02-28T01:07:15;1.30;;;1.20;;
67715;SDS011;54508;43.238;25.306;2023-02-28T01:09:41;1.77;;;1.10;;
67715;SDS011;54508;43.238;25.306;2023-02-28T01:12:07;1.45;;;0.95;;
67715;SDS011;54508;43.238;25.306;2023-02-28T01:14:33;2.10;;;1.13;;
67715;SDS011;54508;43.238;25.306;2023-02-28T01:16:59;1.80;;;1.67;;
67715;SDS011;54508;43.238;25.306;2023-02-28T01:19:25;1.77;;;1.07;;
67715;SDS011;54508;43.238;25.306;2023-02-28T01:21:50;1.80;;;1.30;;
67715;SDS011;54508;43.238;25.306;2023-02-28T01:24:15;1.73;;;1.10;;
67715;SDS011;54508;43.238;25.306;2023-02-28T01:26:41;1.45;;;1.30;;
67715;SDS011;54508;43.238;25.306;2023-02-28T01:29:06;1.13;;;1.03;;
67715;SDS011;54508;43.238;25.306;2023-02-28T01:31:32;2.30;;;1.13;;
67715;SDS011;54508;43.238;25.306;2023-02-28T01:33:57;1.70;;;1.37;;
67715;SDS011;54508;43.238;25.306;2023-02-28T01:36:23;1.65;;;1.30;;
67715;SDS011;54508;43.238;25.306;2023-02-28T01:38:49;2.30;;;1.50;;
67715;SDS011;54508;43.238;25.306;2023-02-28T01:41:23;1.50;;;1.17;;
67715;SDS011;54508;43.238;25.306;2023-02-28T01:46:15;1.67;;;1.20;;
67715;SDS011;54508;43.238;25.306;2023-02-28T01:48:45;2.83;;;1.60;;
67715;SDS011;54508;43.238;25.306;2023-02-28T01:53:56;2.10;;;1.38;;
67715;SDS011;54508;43.238;25.306;2023-02-28T01:56:29;2.08;;;1.52;;
67715;SDS011;54508;43.238;25.306;2023-02-28T01:58:57;2.75;;;1.40;;
67715;SDS011;54508;43.238;25.306;2023-02-28T02:01:23;2.07;;;1.43;;
67715;SDS011;54508;43.238;25.306;2023-02-28T02:03:51;1.45;;;1.17;;
67715;SDS011;54508;43.238;25.306;2023-02-28T02:06:32;1.40;;;1.13;;
67715;SDS011;54508;43.238;25.306;2023-02-28T02:09:04;3.78;;;1.45;;
67715;SDS011;54508;43.238;25.306;2023-02-28T02:11:32;2.45;;;1.58;;
67715;SDS011;54508;43.238;25.306;2023-02-28T02:25:45;1.73;;;1.40;;
67715;SDS011;54508;43.238;25.306;2023-02-28T02:37:27;1.92;;;1.48;;
67715;SDS011;54508;43.238;25.306;2023-02-28T02:47:54;1.60;;;1.42;;
67715;SDS011;54508;43.238;25.306;2023-02-28T02:50:33;2.08;;;1.52;;
67715;SDS011;54508;43.238;25.306;2023-02-28T02:53:02;1.50;;;1.40;;
67715;SDS011;54508;43.238;25.306;2023-02-28T02:55:30;1.50;;;1.40;;
67715;SDS011;54508;43.238;25.306;2023-02-28T02:58:01;1.75;;;1.40;;
67715;SDS011;54508;43.238;25.306;2023-02-28T03:00:30;2.00;;;1.30;;
67715;SDS011;54508;43.238;25.306;2023-02-28T03:02:59;1.70;;;1.60;;
67715;SDS011;54508;43.238;25.306;2023-02-28T03:05:34;1.48;;;1.20;;
67715;SDS011;54508;43.238;25.306;2023-02-28T03:08:04;2.55;;;1.30;;
67715;SDS011;54508;43.238;25.306;2023-02-28T03:10:35;1.80;;;1.40;;
67715;SDS011;54508;43.238;25.306;2023-02-28T03:22:23;2.17;;;1.23;;
67715;SDS011;54508;43.238;25.306;2023-02-28T03:24:33;2.08;;;1.30;;
67715;SDS011;54508;43.238;25.306;2023-02-28T03:27:09;1.88;;;1.05;;
67715;SDS011;54508;43.238;25.306;2023-02-28T03:29:57;1.58;;;1.23;;
67715;SDS011;54508;43.238;25.306;2023-02-28T03:32:36;2.97;;;1.35;;
67715;SDS011;54508;43.238;25.306;2023-02-28T03:35:14;1.17;;;1.00;;
67715;SDS011;54508;43.238;25.306;2023-02-28T03:37:46;1.40;;;1.20;;
67715;SDS011;54508;43.238;25.306;2023-02-28T03:40:17;1.00;;;0.88;;
67715;SDS011;54508;43.238;25.306;2023-02-28T03:42:45;1.40;;;1.13;;
67715;SDS011;54508;43.238;25.306;2023-02-28T03:45:33;2.65;;;1.13;;
67715;SDS011;54508;43.238;25.306;2023-02-28T03:48:02;1.13;;;0.95;;
67715;SDS011;54508;43.238;25.306;2023-02-28T03:50:34;1.58;;;1.35;;
67715;SDS011;54508;43.238;25.306;2023-02-28T03:53:07;1.73;;;1.05;;
67715;SDS011;54508;43.238;25.306;2023-02-28T03:55:50;1.60;;;1.20;;
67715;SDS011;54508;43.238;25.306;2023-02-28T04:00:46;1.30;;;1.07;;
67715;SDS011;54508;43.238;25.306;2023-02-28T04:03:16;1.17;;;1.08;;
67715;SDS011;54508;43.238;25.306;2023-02-28T04:05:50;1.50;;;1.23;;
67715;SDS011;54508;43.238;25.306;2023-02-28T04:08:17;1.50;;;0.93;;
67715;SDS011;54508;43.238;25.306;2023-02-28T04:10:43;1.23;;;0.70;;
67715;SDS011;54508;43.238;25.306;2023-02-28T04:13:10;2.75;;;0.82;;
67715;SDS011;54508;43.238;25.306;2023-02-28T04:15:35;1.30;;;0.90;;
67715;SDS011;54508;43.238;25.306;2023-02-28T04:18:01;0.90;;;0.73;;
67715;SDS011;54508;43.238;25.306;2023-02-28T04:20:27;0.70;;;0.65;;
67715;SDS011;54508;43.238;25.306;2023-02-28T04:22:53;1.33;;;0.80;;
67715;SDS011;54508;43.238;25.306;2023-02-28T04:25:18;1.65;;;0.80;;
67715;SDS011;54508;43.238;25.306;2023-02-28T04:27:43;1.15;;;0.90;;
67715;SDS011;54508;43.238;25.306;2023-02-28T04:30:10;1.20;;;0.90;;
67715;SDS011;54508;43.238;25.306;2023-02-28T04:32:36;1.05;;;0.80;;
67715;SDS011;54508;43.238;25.306;2023-02-28T04:35:01;1.30;;;1.10;;
67715;SDS011;54508;43.238;25.306;2023-02-28T04:37:27;1.17;;;1.00;;
67715;SDS011;54508;43.238;25.306;2023-02-28T04:39:53;1.00;;;0.80;;
67715;SDS011;54508;43.238;25.306;2023-02-28T04:42:19;1.37;;;0.90;;
67715;SDS011;54508;43.238;25.306;2023-02-28T04:44:45;1.15;;;0.90;;
67715;SDS011;54508;43.238;25.306;2023-02-28T04:47:12;1.13;;;0.80;;
67715;SDS011;54508;43.238;25.306;2023-02-28T04:49:37;2.72;;;0.90;;
67715;SDS011;54508;43.238;25.306;2023-02-28T04:52:03;1.10;;;0.80;;
67715;SDS011;54508;43.238;25.306;2023-02-28T04:54:29;1.35;;;1.00;;
67715;SDS011;54508;43.238;25.306;2023-02-28T04:56:54;1.30;;;0.90;;
67715;SDS011;54508;43.238;25.306;2023-02-28T04:59:20;1.02;;;0.93;;
67715;SDS011;54508;43.238;25.306;2023-02-28T05:01:46;0.80;;;0.80;;
67715;SDS011;54508;43.238;25.306;2023-02-28T05:04:13;1.67;;;1.10;;
67715;SDS011;54508;43.238;25.306;2023-02-28T05:06:39;1.60;;;0.90;;
67715;SDS011;54508;43.238;25.306;2023-02-28T05:09:04;1.40;;;1.00;;
67715;SDS011;54508;43.238;25.306;2023-02-28T05:11:31;1.20;;;1.00;;
67715;SDS011;54508;43.238;25.306;2023-02-28T05:14:03;1.65;;;1.10;;
67715;SDS011;54508;43.238;25.306;2023-02-28T05:16:29;1.33;;;1.23;;
67715;SDS011;54508;43.238;25.306;2023-02-28T05:19:04;1.20;;;1.10;;
67715;SDS011;54508;43.238;25.306;2023-02-28T05:21:31;1.30;;;1.10;;
67715;SDS011;54508;43.238;25.306;2023-02-28T05:24:01;1.38;;;1.17;;
67715;SDS011;54508;43.238;25.306;2023-02-28T05:27:02;1.20;;;1.02;;
67715;SDS011;54508;43.238;25.306;2023-02-28T05:29:28;1.23;;;1.10;;
67715;SDS011;54508;43.238;25.306;2023-02-28T05:31:56;1.27;;;1.00;;
67715;SDS011;54508;43.238;25.306;2023-02-28T05:34:22;1.40;;;1.23;;
67715;SDS011;54508;43.238;25.306;2023-02-28T05:36:47;1.57;;;0.97;;
67715;SDS011;54508;43.238;25.306;2023-02-28T05:39:13;1.07;;;0.87;;
67715;SDS011;54508;43.238;25.306;2023-02-28T05:41:43;1.38;;;1.10;;
67715;SDS011;54508;43.238;25.306;2023-02-28T05:44:09;1.07;;;0.90;;
67715;SDS011;54508;43.238;25.306;2023-02-28T05:46:34;1.00;;;0.80;;
67715;SDS011;54508;43.238;25.306;2023-02-28T05:49:00;1.53;;;0.90;;
67715;SDS011;54508;43.238;25.306;2023-02-28T05:51:26;1.40;;;0.95;;
67715;SDS011;54508;43.238;25.306;2023-02-28T05:53:51;1.70;;;1.20;;
67715;SDS011;54508;43.238;25.306;2023-02-28T05:56:17;1.40;;;0.93;;
67715;SDS011;54508;43.238;25.306;2023-02-28T05:58:43;1.92;;;1.10;;
67715;SDS011;54508;43.238;25.306;2023-02-28T06:01:22;1.30;;;1.20;;
67715;SDS011;54508;43.238;25.306;2023-02-28T06:03:57;4.60;;;2.33;;
67715;SDS011;54508;43.238;25.306;2023-02-28T06:06:25;3.35;;;2.28;;
67715;SDS011;54508;43.238;25.306;2023-02-28T06:08:50;4.20;;;1.90;;
67715;SDS011;54508;43.238;25.306;2023-02-28T06:11:16;5.97;;;2.40;;
67715;SDS011;54508;43.238;25.306;2023-02-28T06:13:41;13.83;;;8.40;;
67715;SDS011;54508;43.238;25.306;2023-02-28T06:16:07;7.70;;;5.80;;
67715;SDS011;54508;43.238;25.306;2023-02-28T06:18:34;7.93;;;5.47;;
67715;SDS011;54508;43.238;25.306;2023-02-28T06:21:00;18.20;;;13.32;;
67715;SDS011;54508;43.238;25.306;2023-02-28T06:26:07;11.95;;;8.90;;
67715;SDS011;54508;43.238;25.306;2023-02-28T06:28:33;9.67;;;8.40;;
67715;SDS011;54508;43.238;25.306;2023-02-28T06:30:58;12.70;;;7.55;;
67715;SDS011;54508;43.238;25.306;2023-02-28T06:33:24;8.43;;;7.17;;
67715;SDS011;54508;43.238;25.306;2023-02-28T06:35:50;10.07;;;7.45;;
67715;SDS011;54508;43.238;25.306;2023-02-28T06:38:16;8.25;;;7.15;;
67715;SDS011;54508;43.238;25.306;2023-02-28T06:40:43;7.87;;;6.03;;
67715;SDS011;54508;43.238;25.306;2023-02-28T06:43:08;7.30;;;5.70;;
67715;SDS011;54508;43.238;25.306;2023-02-28T06:45:37;8.35;;;4.80;;
67715;SDS011;54508;43.238;25.306;2023-02-28T06:48:06;10.77;;;5.03;;
67715;SDS011;54508;43.238;25.306;2023-02-28T06:50:32;6.33;;;4.27;;
67715;SDS011;54508;43.238;25.306;2023-02-28T06:52:58;8.33;;;4.70;;
67715;SDS011;54508;43.238;25.306;2023-02-28T06:55:23;5.22;;;4.00;;
67715;SDS011;54508;43.238;25.306;2023-02-28T06:57:49;6.63;;;4.10;;
67715;SDS011;54508;43.238;25.306;2023-02-28T07:00:15;5.20;;;3.72;;
67715;SDS011;54508;43.238;25.306;2023-02-28T07:02:41;4.47;;;3.37;;
67715;SDS011;54508;43.238;25.306;2023-02-28T07:05:07;10.48;;;3.95;;
67715;SDS011;54508;43.238;25.306;2023-02-28T07:07:32;8.98;;;3.67;;
67715;SDS011;54508;43.238;25.306;2023-02-28T07:09:59;4.90;;;3.50;;
67715;SDS011;54508;43.238;25.306;2023-02-28T07:12:24;9.93;;;4.90;;
67715;SDS011;54508;43.238;25.306;2023-02-28T07:14:50;8.07;;;4.68;;
67715;SDS011;54508;43.238;25.306;2023-02-28T07:17:15;7.47;;;5.50;;
67715;SDS011;54508;43.238;25.306;2023-02-28T07:19:41;8.32;;;5.43;;
67715;SDS011;54508;43.238;25.306;2023-02-28T07:22:07;7.60;;;4.60;;
67715;SDS011;54508;43.238;25.306;2023-02-28T07:24:32;5.57;;;4.10;;
67715;SDS011;54508;43.238;25.306;2023-02-28T07:26:58;6.43;;;4.18;;
67715;SDS011;54508;43.238;25.306;2023-02-28T07:29:24;13.82;;;6.43;;
67715;SDS011;54508;43.238;25.306;2023-02-28T07:31:50;11.57;;;5.67;;
67715;SDS011;54508;43.238;25.306;2023-02-28T07:34:18;8.15;;;5.43;;
67715;SDS011;54508;43.238;25.306;2023-02-28T07:36:44;5.90;;;4.25;;
67715;SDS011;54508;43.238;25.306;2023-02-28T07:39:10;7.77;;;4.40;;
67715;SDS011;54508;43.238;25.306;2023-02-28T07:41:35;5.85;;;3.42;;
67715;SDS011;54508;43.238;25.306;2023-02-28T07:44:08;8.65;;;4.45;;
67715;SDS011;54508;43.238;25.306;2023-02-28T07:46:36;5.03;;;3.67;;
67715;SDS011;54508;43.238;25.306;2023-02-28T07:49:02;14.98;;;4.55;;
67715;SDS011;54508;43.238;25.306;2023-02-28T07:51:28;7.97;;;4.45;;
67715;SDS011;54508;43.238;25.306;2023-02-28T07:54:04;7.82;;;4.40;;
67715;SDS011;54508;43.238;25.306;2023-02-28T07:56:49;13.33;;;4.80;;
67715;SDS011;54508;43.238;25.306;2023-02-28T07:59:15;9.77;;;4.28;;
67715;SDS011;54508;43.238;25.306;2023-02-28T08:01:40;7.63;;;4.23;;
67715;SDS011;54508;43.238;25.306;2023-02-28T08:04:05;6.33;;;4.17;;
67715;SDS011;54508;43.238;25.306;2023-02-28T08:06:31;6.32;;;3.90;;
67715;SDS011;54508;43.238;25.306;2023-02-28T08:08:56;9.85;;;3.80;;
67715;SDS011;54508;43.238;25.306;2023-02-28T08:11:22;6.87;;;3.90;;
67715;SDS011;54508;43.238;25.306;2023-02-28T08:13:48;8.65;;;3.58;;
67715;SDS011;54508;43.238;25.306;2023-02-28T08:16:13;10.10;;;4.30;;
67715;SDS011;54508;43.238;25.306;2023-02-28T08:18:42;6.57;;;4.00;;
67715;SDS011;54508;43.238;25.306;2023-02-28T08:21:08;16.07;;;6.13;;
67715;SDS011;54508;43.238;25.306;2023-02-28T08:23:35;9.95;;;5.30;;
67715;SDS011;54508;43.238;25.306;2023-02-28T08:26:00;11.52;;;5.05;;
67715;SDS011;54508;43.238;25.306;2023-02-28T08:28:26;15.27;;;4.53;;
67715;SDS011;54508;43.238;25.306;2023-02-28T08:30:51;10.93;;;4.50;;
67715;SDS011;54508;43.238;25.306;2023-02-28T08:33:17;10.27;;;4.70;;
67715;SDS011;54508;43.238;25.306;2023-02-28T08:35:48;7.63;;;4.20;;
67715;SDS011;54508;43.238;25.306;2023-02-28T08:38:18;6.47;;;3.43;;
67715;SDS011;54508;43.238;25.306;2023-02-28T08:40:43;5.75;;;3.47;;
67715;SDS011;54508;43.238;25.306;2023-02-28T08:43:08;5.27;;;2.97;;
67715;SDS011;54508;43.238;25.306;2023-02-28T08:45:34;8.90;;;3.50;;
67715;SDS011;54508;43.238;25.306;2023-02-28T08:47:59;5.30;;;4.03;;
67715;SDS011;54508;43.238;25.306;2023-02-28T08:50:25;6.00;;;2.95;;
67715;SDS011;54508;43.238;25.306;2023-02-28T08:52:50;8.30;;;4.10;;
67715;SDS011;54508;43.238;25.306;2023-02-28T08:55:16;7.47;;;3.60;;
67715;SDS011;54508;43.238;25.306;2023-02-28T08:57:41;9.90;;;3.37;;
67715;SDS011;54508;43.238;25.306;2023-02-28T09:00:07;8.18;;;4.35;;
67715;SDS011;54508;43.238;25.306;2023-02-28T09:02:41;6.85;;;2.97;;
67715;SDS011;54508;43.238;25.306;2023-02-28T09:05:27;5.32;;;3.25;;
67715;SDS011;54508;43.238;25.306;2023-02-28T09:08:09;12.35;;;5.43;;
67715;SDS011;54508;43.238;25.306;2023-02-28T09:10:37;13.63;;;4.87;;
67715;SDS011;54508;43.238;25.306;2023-02-28T09:13:03;7.78;;;4.32;;
67715;SDS011;54508;43.238;25.306;2023-02-28T09:15:28;10.87;;;4.70;;
67715;SDS011;54508;43.238;25.306;2023-02-28T09:17:54;7.07;;;3.57;;
67715;SDS011;54508;43.238;25.306;2023-02-28T09:20:19;19.20;;;4.32;;
67715;SDS011;54508;43.238;25.306;2023-02-28T09:22:44;16.90;;;4.90;;
67715;SDS011;54508;43.238;25.306;2023-02-28T09:25:10;10.83;;;4.00;;
67715;SDS011;54508;43.238;25.306;2023-02-28T09:27:35;9.37;;;3.90;;
67715;SDS011;54508;43.238;25.306;2023-02-28T09:30:02;9.82;;;4.47;;
67715;SDS011;54508;43.238;25.306;2023-02-28T09:32:27;6.97;;;3.90;;
67715;SDS011;54508;43.238;25.306;2023-02-28T09:34:53;12.02;;;3.97;;
67715;SDS011;54508;43.238;25.306;2023-02-28T09:37:18;7.73;;;3.50;;
67715;SDS011;54508;43.238;25.306;2023-02-28T09:39:44;6.17;;;3.20;;
67715;SDS011;54508;43.238;25.306;2023-02-28T09:42:21;12.55;;;4.13;;
67715;SDS011;54508;43.238;25.306;2023-02-28T09:44:53;10.93;;;3.90;;
67715;SDS011;54508;43.238;25.306;2023-02-28T09:47:35;10.45;;;3.90;;
67715;SDS011;54508;43.238;25.306;2023-02-28T09:50:09;11.93;;;4.25;;
67715;SDS011;54508;43.238;25.306;2023-02-28T09:53:19;6.85;;;2.97;;
67715;SDS011;54508;43.238;25.306;2023-02-28T09:55:51;4.32;;;3.28;;
67715;SDS011;54508;43.238;25.306;2023-02-28T09:58:22;8.05;;;3.78;;
67715;SDS011;54508;43.238;25.306;2023-02-28T10:00:56;8.68;;;3.47;;
67715;SDS011;54508;43.238;25.306;2023-02-28T10:03:54;8.32;;;3.72;;
67715;SDS011;54508;43.238;25.306;2023-02-28T10:06:22;15.65;;;9.20;;
67715;SDS011;54508;43.238;25.306;2023-02-28T10:11:32;8.93;;;6.95;;
67715;SDS011;54508;43.238;25.306;2023-02-28T10:17:07;16.13;;;7.50;;
67715;SDS011;54508;43.238;25.306;2023-02-28T10:19:33;11.98;;;6.43;;
67715;SDS011;54508;43.238;25.306;2023-02-28T10:22:15;15.30;;;7.38;;
67715;SDS011;54508;43.238;25.306;2023-02-28T10:24:45;9.23;;;6.57;;
67715;SDS011;54508;43.238;25.306;2023-02-28T10:27:13;12.55;;;5.63;;
67715;SDS011;54508;43.238;25.306;2023-02-28T10:29:43;7.68;;;5.13;;
67715;SDS011;54508;43.238;25.306;2023-02-28T10:32:11;7.88;;;3.90;;
67715;SDS011;54508;43.238;25.306;2023-02-28T10:34:40;7.78;;;3.80;;
67715;SDS011;54508;43.238;25.306;2023-02-28T10:37:06;8.13;;;4.47;;
67715;SDS011;54508;43.238;25.306;2023-02-28T10:42:27;7.22;;;3.42;;
67715;SDS011;54508;43.238;25.306;2023-02-28T10:47:49;5.85;;;3.72;;
67715;SDS011;54508;43.238;25.306;2023-02-28T11:01:43;6.10;;;3.78;;
67715;SDS011;54508;43.238;25.306;2023-02-28T11:06:42;5.00;;;4.25;;
67715;SDS011;54508;43.238;25.306;2023-02-28T11:09:19;5.90;;;3.30;;
67715;SDS011;54508;43.238;25.306;2023-02-28T11:11:49;5.77;;;2.80;;
67715;SDS011;54508;43.238;25.306;2023-02-28T11:14:19;5.90;;;2.83;;
67715;SDS011;54508;43.238;25.306;2023-02-28T11:16:52;7.55;;;3.75;;
67715;SDS011;54508;43.238;25.306;2023-02-28T11:19:38;3.85;;;3.00;;
67715;SDS011;54508;43.238;25.306;2023-02-28T11:22:08;5.40;;;4.07;;
67715;SDS011;54508;43.238;25.306;2023-02-28T11:24:42;8.38;;;3.50;;
67715;SDS011;54508;43.238;25.306;2023-02-28T11:27:53;8.10;;;3.38;;
67715;SDS011;54508;43.238;25.306;2023-02-28T11:29:59;5.35;;;3.15;;
67715;SDS011;54508;43.238;25.306;2023-02-28T11:32:26;5.95;;;3.50;;
67715;SDS011;54508;43.238;25.306;2023-02-28T11:37:37;7.85;;;3.60;;
67715;SDS011;54508;43.238;25.306;2023-02-28T11:40:08;5.15;;;3.00;;
67715;SDS011;54508;43.238;25.306;2023-02-28T11:48:01;5.50;;;3.47;;
67715;SDS011;54508;43.238;25.306;2023-02-28T11:51:07;8.27;;;4.05;;
67715;SDS011;54508;43.238;25.306;2023-02-28T11:56:43;10.13;;;4.20;;
67715;SDS011;54508;43.238;25.306;2023-02-28T12:04:56;13.35;;;4.32;;
67715;SDS011;54508;43.238;25.306;2023-02-28T12:12:57;5.15;;;3.65;;
67715;SDS011;54508;43.238;25.306;2023-02-28T12:15:52;5.63;;;3.80;;
67715;SDS011;54508;43.238;25.306;2023-02-28T12:31:49;4.88;;;3.55;;
67715;SDS011;54508;43.238;25.306;2023-02-28T12:34:52;5.00;;;3.88;;
67715;SDS011;54508;43.238;25.306;2023-02-28T12:37:19;8.23;;;4.35;;
67715;SDS011;54508;43.238;25.306;2023-02-28T12:39:49;7.47;;;4.53;;
67715;SDS011;54508;43.238;25.306;2023-02-28T12:42:30;6.78;;;4.28;;
67715;SDS011;54508;43.238;25.306;2023-02-28T12:47:50;7.78;;;4.95;;
67715;SDS011;54508;43.238;25.306;2023-02-28T12:50:18;11.60;;;5.03;;
67715;SDS011;54508;43.238;25.306;2023-02-28T12:52:49;10.95;;;4.38;;
67715;SDS011;54508;43.238;25.306;2023-02-28T12:55:29;6.35;;;3.63;;
67715;SDS011;54508;43.238;25.306;2023-02-28T13:03:46;6.10;;;4.70;;
67715;SDS011;54508;43.238;25.306;2023-02-28T13:09:08;7.18;;;5.22;;
67715;SDS011;54508;43.238;25.306;2023-02-28T13:11:40;9.20;;;4.60;;
67715;SDS011;54508;43.238;25.306;2023-02-28T13:22:45;8.77;;;4.30;;
67715;SDS011;54508;43.238;25.306;2023-02-28T13:31:01;8.90;;;4.03;;
67715;SDS011;54508;43.238;25.306;2023-02-28T13:33:29;6.75;;;4.18;;
67715;SDS011;54508;43.238;25.306;2023-02-28T13:39:44;5.25;;;4.20;;
67715;SDS011;54508;43.238;25.306;2023-02-28T13:51:51;11.32;;;5.65;;
67715;SDS011;54508;43.238;25.306;2023-02-28T13:59:36;8.15;;;4.50;;
67715;SDS011;54508;43.238;25.306;2023-02-28T14:02:16;7.30;;;4.95;;
67715;SDS011;54508;43.238;25.306;2023-02-28T14:05:15;12.65;;;4.40;;
67715;SDS011;54508;43.238;25.306;2023-02-28T14:07:46;6.43;;;4.88;;
67715;SDS011;54508;43.238;25.306;2023-02-28T14:10:36;5.53;;;4.03;;
67715;SDS011;54508;43.238;25.306;2023-02-28T14:15:59;5.60;;;3.80;;
67715;SDS011;54508;43.238;25.306;2023-02-28T14:18:30;9.57;;;5.13;;
67715;SDS011;54508;43.238;25.306;2023-02-28T14:20:58;9.27;;;5.10;;
67715;SDS011;54508;43.238;25.306;2023-02-28T14:26:30;8.00;;;4.28;;
67715;SDS011;54508;43.238;25.306;2023-02-28T14:32:02;5.13;;;3.85;;
67715;SDS011;54508;43.238;25.306;2023-02-28T14:34:58;4.80;;;3.50;;
67715;SDS011;54508;43.238;25.306;2023-02-28T14:37:39;6.88;;;4.35;;
67715;SDS011;54508;43.238;25.306;2023-02-28T14:40:14;9.93;;;4.80;;
67715;SDS011;54508;43.238;25.306;2023-02-28T14:43:03;14.70;;;5.63;;
67715;SDS011;54508;43.238;25.306;2023-02-28T14:45:29;5.97;;;4.22;;
67715;SDS011;54508;43.238;25.306;2023-02-28T14:47:55;8.32;;;5.70;;
67715;SDS011;54508;43.238;25.306;2023-02-28T14:50:32;7.20;;;4.57;;
67715;SDS011;54508;43.238;25.306;2023-02-28T14:56:19;9.10;;;4.32;;
67715;SDS011;54508;43.238;25.306;2023-02-28T14:58:53;7.28;;;5.88;;
67715;SDS011;54508;43.238;25.306;2023-02-28T15:01:21;8.20;;;6.00;;
67715;SDS011;54508;43.238;25.306;2023-02-28T15:03:47;6.57;;;5.20;;
67715;SDS011;54508;43.238;25.306;2023-02-28T15:06:14;6.90;;;5.50;;
67715;SDS011;54508;43.238;25.306;2023-02-28T15:08:43;6.57;;;5.40;;
67715;SDS011;54508;43.238;25.306;2023-02-28T15:11:13;6.47;;;5.15;;
67715;SDS011;54508;43.238;25.306;2023-02-28T15:13:44;6.22;;;5.07;;
67715;SDS011;54508;43.238;25.306;2023-02-28T15:18:45;8.00;;;5.93;;
67715;SDS011;54508;43.238;25.306;2023-02-28T15:21:20;7.13;;;5.55;;
67715;SDS011;54508;43.238;25.306;2023-02-28T15:23:52;6.32;;;4.82;;
67715;SDS011;54508;43.238;25.306;2023-02-28T15:26:21;10.77;;;5.72;;
67715;SDS011;54508;43.238;25.306;2023-02-28T15:28:50;9.07;;;6.27;;
67715;SDS011;54508;43.238;25.306;2023-02-28T15:31:21;6.00;;;5.20;;
67715;SDS011;54508;43.238;25.306;2023-02-28T15:33:55;5.85;;;4.90;;
67715;SDS011;54508;43.238;25.306;2023-02-28T15:36:23;15.70;;;5.82;;
67715;SDS011;54508;43.238;25.306;2023-02-28T15:38:52;6.13;;;4.47;;
67715;SDS011;54508;43.238;25.306;2023-02-28T15:41:30;8.93;;;4.53;;
67715;SDS011;54508;43.238;25.306;2023-02-28T15:46:53;6.10;;;4.65;;
67715;SDS011;54508;43.238;25.306;2023-02-28T15:49:20;6.25;;;4.10;;
67715;SDS011;54508;43.238;25.306;2023-02-28T15:51:48;8.38;;;4.57;;
67715;SDS011;54508;43.238;25.306;2023-02-28T15:54:15;10.60;;;5.40;;
67715;SDS011;54508;43.238;25.306;2023-02-28T15:57:06;10.55;;;5.30;;
67715;SDS011;54508;43.238;25.306;2023-02-28T15:59:36;12.25;;;6.10;;
67715;SDS011;54508;43.238;25.306;2023-02-28T16:04:35;8.27;;;5.50;;
67715;SDS011;54508;43.238;25.306;2023-02-28T16:07:02;12.95;;;4.50;;
67715;SDS011;54508;43.238;25.306;2023-02-28T16:09:29;8.57;;;4.82;;
67715;SDS011;54508;43.238;25.306;2023-02-28T16:11:56;10.23;;;4.90;;
67715;SDS011;54508;43.238;25.306;2023-02-28T16:14:26;8.80;;;4.53;;
67715;SDS011;54508;43.238;25.306;2023-02-28T16:17:03;7.78;;;4.70;;
67715;SDS011;54508;43.238;25.306;2023-02-28T16:19:30;6.55;;;4.03;;
67715;SDS011;54508;43.238;25.306;2023-02-28T16:21:56;7.40;;;4.30;;
67715;SDS011;54508;43.238;25.306;2023-02-28T16:24:22;6.22;;;5.03;;
67715;SDS011;54508;43.238;25.306;2023-02-28T16:26:48;6.20;;;4.70;;
67715;SDS011;54508;43.238;25.306;2023-02-28T16:29:19;6.50;;;4.60;;
67715;SDS011;54508;43.238;25.306;2023-02-28T16:31:50;6.03;;;4.15;;
67715;SDS011;54508;43.238;25.306;2023-02-28T16:34:16;5.30;;;4.20;;
67715;SDS011;54508;43.238;25.306;2023-02-28T16:36:41;9.20;;;4.00;;
67715;SDS011;54508;43.238;25.306;2023-02-28T16:39:07;5.47;;;4.20;;
67715;SDS011;54508;43.238;25.306;2023-02-28T16:41:32;5.33;;;3.80;;
67715;SDS011;54508;43.238;25.306;2023-02-28T16:43:59;4.85;;;3.70;;
67715;SDS011;54508;43.238;25.306;2023-02-28T16:46:30;5.70;;;3.80;;
67715;SDS011;54508;43.238;25.306;2023-02-28T16:48:58;5.80;;;3.95;;
67715;SDS011;54508;43.238;25.306;2023-02-28T16:51:23;5.50;;;4.00;;
67715;SDS011;54508;43.238;25.306;2023-02-28T16:53:49;6.07;;;3.80;;
67715;SDS011;54508;43.238;25.306;2023-02-28T16:56:16;6.63;;;3.90;;
67715;SDS011;54508;43.238;25.306;2023-02-28T16:58:43;5.72;;;4.18;;
67715;SDS011;54508;43.238;25.306;2023-02-28T17:01:09;5.97;;;3.50;;
67715;SDS011;54508;43.238;25.306;2023-02-28T17:03:34;4.53;;;3.38;;
67715;SDS011;54508;43.238;25.306;2023-02-28T17:06:01;5.10;;;3.57;;
67715;SDS011;54508;43.238;25.306;2023-02-28T17:08:28;5.32;;;3.65;;
67715;SDS011;54508;43.238;25.306;2023-02-28T17:10:54;5.05;;;3.60;;
67715;SDS011;54508;43.238;25.306;2023-02-28T17:13:20;3.80;;;3.10;;
67715;SDS011;54508;43.238;25.306;2023-02-28T17:15:45;3.92;;;2.80;;
67715;SDS011;54508;43.238;25.306;2023-02-28T17:18:15;3.50;;;2.80;;
67715;SDS011;54508;43.238;25.306;2023-02-28T17:20:44;4.15;;;3.20;;
67715;SDS011;54508;43.238;25.306;2023-02-28T17:23:10;7.03;;;3.30;;
67715;SDS011;54508;43.238;25.306;2023-02-28T17:25:38;6.60;;;3.70;;
67715;SDS011;54508;43.238;25.306;2023-02-28T17:28:19;3.70;;;3.40;;
67715;SDS011;54508;43.238;25.306;2023-02-28T17:30:48;4.28;;;3.17;;
67715;SDS011;54508;43.238;25.306;2023-02-28T17:33:17;3.70;;;2.72;;
67715;SDS011;54508;43.238;25.306;2023-02-28T17:35:45;4.78;;;3.53;;
67715;SDS011;54508;43.238;25.306;2023-02-28T17:38:23;5.68;;;3.58;;
67715;SDS011;54508;43.238;25.306;2023-02-28T17:40:48;4.63;;;3.45;;